createdAt,value
2023-04-20T00:00:32.572Z,40.33
2023-04-20T00:03:01.900Z,40.68
2023-04-20T00:05:32.097Z,40.29
2023-04-20T00:08:01.280Z,40.26
2023-04-20T00:10:29.832Z,40.21
2023-04-20T00:12:58.270Z,40.20
2023-04-20T00:15:28.021Z,40.13
2023-04-20T00:17:56.499Z,40.05
2023-04-20T00:20:25.012Z,40.19
2023-04-20T00:22:53.351Z,39.89
2023-04-20T00:25:21.975Z,39.89
2023-04-20T00:27:50.431Z,39.93
2023-04-20T00:30:18.827Z,39.92
2023-04-20T00:32:48.568Z,40.02
2023-04-20T00:35:17.013Z,40.09
2023-04-20T00:37:45.423Z,40.19
2023-04-20T00:40:13.999Z,40.19
2023-04-20T00:42:42.452Z,39.88
2023-04-20T00:45:11.702Z,40.10
2023-04-20T00:47:40.214Z,40.19
2023-04-20T00:50:11.998Z,39.81
2023-04-20T00:52:40.859Z,39.97
2023-04-20T00:55:10.196Z,40.02
2023-04-20T00:57:38.575Z,39.94
2023-04-20T01:00:11.526Z,40.02
2023-04-20T01:02:39.992Z,39.77
2023-04-20T01:05:10.468Z,39.60
2023-04-20T01:07:38.794Z,39.50
2023-04-20T01:10:09.290Z,39.39
2023-04-20T01:12:37.688Z,39.74
2023-04-20T01:15:07.332Z,39.66
2023-04-20T01:17:36.769Z,39.65
2023-04-20T01:20:07.970Z,39.60
2023-04-20T01:22:46.032Z,39.53
2023-04-20T01:25:14.783Z,39.36
2023-04-20T01:27:43.186Z,39.47
2023-04-20T01:30:12.512Z,39.42
2023-04-20T01:32:41.085Z,39.60
2023-04-20T01:35:10.527Z,39.50
2023-04-20T01:37:39.201Z,39.28
2023-04-20T01:40:11.080Z,39.24
2023-04-20T01:42:39.439Z,39.46
2023-04-20T01:45:09.101Z,39.39
2023-04-20T01:47:38.036Z,39.26
2023-04-20T01:50:07.351Z,39.16
2023-04-20T01:52:35.835Z,39.35
2023-04-20T01:55:04.326Z,39.10
2023-04-20T01:57:34.049Z,39.36
2023-04-20T02:00:02.553Z,39.38
2023-04-20T02:02:31.012Z,39.09
2023-04-20T02:04:59.415Z,38.99
2023-04-20T02:07:27.812Z,39.34
2023-04-20T02:09:56.183Z,39.07
2023-04-20T02:12:24.593Z,39.16
2023-04-20T02:14:54.272Z,39.13
2023-04-20T02:17:22.728Z,39.12
2023-04-20T02:19:51.167Z,39.12
2023-04-20T02:22:19.603Z,38.94
2023-04-20T02:24:47.974Z,39.18
2023-04-20T02:27:16.267Z,38.93
2023-04-20T02:29:44.631Z,39.21
2023-04-20T02:32:14.393Z,38.86
2023-04-20T02:34:42.828Z,39.18
2023-04-20T02:37:11.167Z,38.93
2023-04-20T02:39:39.554Z,38.88
2023-04-20T02:42:07.974Z,39.20
2023-04-20T02:44:36.382Z,39.02
2023-04-20T02:47:04.759Z,39.01
2023-04-20T02:49:34.678Z,38.71
2023-04-20T02:52:03.034Z,38.91
2023-04-20T02:54:31.396Z,39.01
2023-04-20T02:56:59.858Z,39.09
2023-04-20T02:59:28.189Z,39.01
2023-04-20T03:01:56.634Z,38.77
2023-04-20T03:04:26.014Z,39.03
2023-04-20T03:06:55.985Z,39.11
2023-04-20T03:09:24.669Z,39.11
2023-04-20T03:11:53.104Z,39.01
2023-04-20T03:14:21.526Z,38.86
2023-04-20T03:16:49.951Z,38.85
2023-04-20T03:19:18.530Z,38.84
2023-04-20T03:21:47.029Z,38.86
2023-04-20T03:24:16.969Z,38.83
2023-04-20T03:26:45.344Z,38.90
2023-04-20T03:29:13.687Z,38.76
2023-04-20T03:31:42.140Z,38.79
2023-04-20T03:34:10.744Z,38.86
2023-04-20T03:36:39.088Z,38.83
2023-04-20T03:39:07.699Z,38.82
2023-04-20T03:41:37.418Z,38.79
2023-04-20T03:44:07.080Z,38.76
2023-04-20T03:46:36.463Z,38.88
2023-04-20T03:49:04.900Z,38.93
2023-04-20T03:51:33.341Z,38.90
2023-04-20T03:54:01.703Z,38.83
2023-04-20T03:56:30.095Z,38.88
2023-04-20T03:58:59.892Z,38.84
2023-04-20T04:01:28.705Z,38.95
2023-04-20T04:03:57.332Z,38.87
2023-04-20T04:06:26.951Z,38.86
2023-04-20T04:08:55.596Z,38.85
2023-04-20T04:11:25.512Z,38.78
2023-04-20T04:13:53.888Z,38.95
2023-04-20T04:16:23.685Z,38.77
2023-04-20T04:18:52.087Z,38.86
2023-04-20T04:21:21.082Z,38.72
2023-04-20T04:23:49.993Z,38.79
2023-04-20T04:26:21.502Z,38.86
2023-04-20T04:28:49.865Z,38.79
2023-04-20T04:31:19.537Z,38.82
2023-04-20T04:33:49.847Z,38.63
2023-04-20T04:36:18.275Z,38.64
2023-04-20T04:38:46.650Z,38.70
2023-04-20T04:41:15.302Z,38.64
2023-04-20T04:43:43.714Z,38.66
2023-04-20T04:46:12.550Z,38.88
2023-04-20T04:48:42.451Z,38.64
2023-04-20T04:51:12.256Z,38.49
2023-04-20T04:53:45.095Z,38.79
2023-04-20T04:56:14.404Z,38.82
2023-04-20T04:58:42.812Z,38.81
2023-04-20T05:01:11.218Z,38.77
2023-04-20T05:03:39.944Z,38.64
2023-04-20T05:06:08.872Z,38.64
2023-04-20T05:08:38.581Z,38.94
2023-04-20T05:11:07.139Z,38.64
2023-04-20T05:13:35.567Z,38.68
2023-04-20T05:16:04.147Z,38.76
2023-04-20T05:18:32.544Z,39.56
2023-04-20T05:21:00.939Z,39.75
2023-04-20T05:23:29.464Z,39.68
2023-04-20T05:25:59.279Z,39.88
2023-04-20T05:28:27.972Z,39.35
2023-04-20T05:30:56.336Z,39.33
2023-04-20T05:33:24.734Z,40.39
2023-04-20T05:35:56.581Z,40.83
2023-04-20T05:38:24.992Z,40.26
2023-04-20T05:40:53.378Z,41.11
2023-04-20T05:43:23.141Z,40.47
2023-04-20T05:45:51.547Z,41.01
2023-04-20T05:48:20.139Z,40.00
2023-04-20T05:50:48.489Z,39.78
2023-04-20T05:53:16.904Z,39.79
2023-04-20T05:55:45.400Z,39.57
2023-04-20T05:58:13.796Z,39.74
2023-04-20T06:00:43.564Z,39.52
2023-04-20T06:03:12.220Z,40.37
2023-04-20T06:05:43.814Z,39.76
2023-04-20T06:08:12.757Z,40.15
2023-04-20T06:10:41.423Z,39.63
2023-04-20T06:13:09.904Z,39.86
2023-04-20T06:15:38.488Z,39.68
2023-04-20T06:18:08.291Z,39.50
2023-04-20T06:20:36.731Z,39.70
2023-04-20T06:23:05.125Z,39.58
2023-04-20T06:25:33.468Z,41.29
2023-04-20T06:28:01.888Z,40.82
2023-04-20T06:30:30.512Z,41.43
2023-04-20T06:32:58.976Z,41.30
2023-04-20T06:35:28.957Z,40.75
2023-04-20T06:37:57.826Z,41.45
2023-04-20T06:40:28.401Z,41.60
2023-04-20T06:42:56.818Z,41.31
2023-04-20T06:45:25.281Z,40.77
2023-04-20T06:47:53.841Z,40.43
2023-04-20T06:50:22.488Z,40.64
2023-04-20T06:52:52.285Z,40.34
2023-04-20T06:55:21.120Z,40.74
2023-04-20T06:57:49.524Z,41.30
2023-04-20T07:00:19.290Z,42.01
2023-04-20T07:02:49.163Z,41.48
2023-04-20T07:05:17.766Z,41.43
2023-04-20T07:07:46.880Z,41.04
2023-04-20T07:10:16.902Z,40.11
2023-04-20T07:12:45.558Z,41.38
2023-04-20T07:15:14.159Z,42.53
2023-04-20T07:17:42.633Z,41.14
2023-04-20T07:20:11.673Z,41.71
2023-04-20T07:22:40.355Z,41.13
2023-04-20T07:25:09.992Z,41.89
2023-04-20T07:27:41.722Z,42.23
2023-04-20T07:30:11.334Z,42.08
2023-04-20T07:32:40.926Z,42.15
2023-04-20T07:35:10.535Z,42.28
2023-04-20T07:37:39.042Z,42.05
2023-04-20T07:40:09.406Z,41.71
2023-04-20T07:42:39.306Z,41.85
2023-04-20T07:45:09.079Z,42.26
2023-04-20T07:47:37.659Z,42.02
2023-04-20T07:50:07.290Z,42.14
2023-04-20T07:52:35.813Z,42.39
2023-04-20T07:55:04.269Z,42.76
2023-04-20T07:57:33.082Z,43.39
2023-04-20T08:00:04.502Z,42.90
2023-04-20T08:02:33.750Z,43.13
2023-04-20T08:05:04.025Z,42.99
2023-04-20T08:07:32.616Z,43.25
2023-04-20T08:10:03.132Z,43.28
2023-04-20T08:12:31.637Z,43.31
2023-04-20T08:15:02.010Z,43.26
2023-04-20T08:17:31.751Z,43.40
2023-04-20T08:20:00.228Z,43.47
2023-04-20T08:22:30.402Z,43.58
2023-04-20T08:24:59.006Z,43.61
2023-04-20T08:27:29.682Z,43.08
2023-04-20T08:29:58.144Z,43.69
2023-04-20T08:32:27.093Z,43.41
2023-04-20T08:34:57.019Z,42.57
2023-04-20T08:37:26.004Z,42.83
2023-04-20T08:39:54.872Z,42.52
2023-04-20T08:42:23.316Z,42.78
2023-04-20T08:44:51.715Z,43.29
2023-04-20T08:47:20.048Z,42.85
2023-04-20T08:49:48.472Z,39.51
2023-04-20T08:52:18.167Z,40.90
2023-04-20T08:54:56.137Z,40.97
2023-04-20T08:57:25.913Z,42.09
2023-04-20T08:59:54.518Z,42.34
2023-04-20T09:02:23.401Z,42.11
2023-04-20T09:05:02.043Z,41.74
2023-04-20T09:07:31.896Z,43.01
2023-04-20T09:10:01.306Z,43.02
2023-04-20T09:12:29.839Z,43.46
2023-04-20T09:14:58.297Z,45.48
2023-04-20T09:17:34.312Z,44.26
2023-04-20T09:20:02.737Z,45.43
2023-04-20T09:22:32.983Z,44.98
2023-04-20T09:25:01.736Z,45.04
2023-04-20T09:27:30.099Z,44.38
2023-04-20T09:29:59.738Z,44.32
2023-04-20T09:32:29.407Z,45.77
2023-04-20T09:34:58.052Z,45.60
2023-04-20T09:37:26.759Z,45.34
2023-04-20T09:39:59.986Z,44.98
2023-04-20T09:42:29.614Z,44.49
2023-04-20T09:44:57.984Z,44.30
2023-04-20T09:47:27.462Z,44.54
2023-04-20T09:49:57.239Z,40.89
2023-04-20T09:52:25.766Z,41.78
2023-04-20T09:54:54.187Z,43.60
2023-04-20T09:57:23.979Z,44.67
2023-04-20T09:59:53.379Z,45.55
2023-04-20T10:02:22.050Z,45.86
2023-04-20T10:04:55.505Z,45.78
2023-04-20T10:07:27.765Z,45.90
2023-04-20T10:10:10.198Z,46.16
2023-04-20T10:13:01.979Z,44.71
2023-04-20T10:15:38.295Z,45.66
2023-04-20T10:18:20.506Z,45.00
2023-04-20T10:20:49.073Z,45.08
2023-04-20T10:23:19.560Z,47.22
2023-04-20T10:25:57.897Z,45.80
2023-04-20T10:28:27.738Z,45.11
2023-04-20T10:30:56.381Z,45.26
2023-04-20T10:33:24.813Z,45.22
2023-04-20T10:35:55.153Z,45.28
2023-04-20T10:38:33.009Z,45.74
2023-04-20T10:41:08.373Z,45.92
2023-04-20T10:43:39.240Z,45.76
2023-04-20T10:46:16.357Z,45.71
2023-04-20T10:48:53.111Z,45.66
2023-04-20T10:51:21.622Z,45.62
2023-04-20T10:54:01.026Z,45.48
2023-04-20T10:56:29.401Z,45.63
2023-04-20T10:59:08.131Z,45.31
2023-04-20T11:01:36.645Z,45.52
2023-04-20T11:04:05.258Z,45.16
2023-04-20T11:06:33.734Z,45.14
2023-04-20T11:09:02.219Z,45.29
2023-04-20T11:11:30.612Z,45.12
2023-04-20T11:14:10.640Z,45.10
2023-04-20T11:19:10.518Z,44.92
2023-04-20T11:21:39.520Z,45.11
2023-04-20T11:24:19.095Z,44.97
2023-04-20T11:26:49.904Z,44.85
2023-04-20T11:29:34.169Z,44.80
2023-04-20T11:32:05.628Z,44.76
2023-04-20T11:34:34.309Z,45.01
2023-04-20T11:37:06.213Z,44.72
2023-04-20T11:39:34.852Z,44.83
2023-04-20T11:42:03.361Z,44.82
2023-04-20T11:44:33.167Z,44.84
2023-04-20T11:47:01.988Z,44.62
2023-04-20T11:49:30.974Z,44.74
2023-04-20T11:51:59.387Z,44.79
2023-04-20T11:54:29.746Z,44.43
2023-04-20T11:56:59.076Z,44.36
2023-04-20T11:59:27.514Z,44.83
2023-04-20T12:01:57.325Z,44.67
2023-04-20T12:04:26.133Z,44.45
2023-04-20T12:06:54.831Z,44.51
2023-04-20T12:09:23.419Z,44.51
2023-04-20T12:11:51.806Z,44.63
2023-04-20T12:14:20.237Z,44.58
2023-04-20T12:16:48.982Z,44.40
2023-04-20T12:19:18.971Z,44.42
2023-04-20T12:21:48.457Z,44.50
2023-04-20T12:24:17.327Z,44.42
2023-04-20T12:26:46.033Z,44.42
2023-04-20T12:29:14.825Z,44.57
2023-04-20T12:31:43.909Z,44.63
2023-04-20T12:34:13.649Z,44.42
2023-04-20T12:36:43.540Z,44.62
2023-04-20T12:39:12.145Z,44.47
2023-04-20T12:41:42.134Z,44.32
2023-04-20T12:44:11.511Z,44.61
2023-04-20T12:46:40.103Z,44.46
2023-04-20T12:49:08.688Z,44.51
2023-04-20T12:51:37.086Z,44.50
2023-04-20T12:54:06.909Z,44.24
2023-04-20T12:56:35.391Z,44.40
2023-04-20T12:59:04.192Z,44.32
2023-04-20T13:01:32.729Z,44.25
2023-04-20T13:04:01.575Z,44.40
2023-04-20T13:06:30.205Z,44.23
2023-04-20T13:08:58.641Z,44.26
2023-04-20T13:11:28.386Z,44.09
2023-04-20T13:13:58.163Z,44.22
2023-04-20T13:16:29.306Z,44.24
2023-04-20T13:18:57.856Z,44.16
2023-04-20T13:21:26.289Z,44.12
2023-04-20T13:23:55.504Z,44.12
2023-04-20T13:26:25.449Z,44.08
2023-04-20T13:28:57.587Z,44.14
2023-04-20T13:31:26.118Z,44.13
2023-04-20T13:33:55.696Z,44.10
2023-04-20T13:36:24.419Z,44.11
2023-04-20T13:38:53.639Z,43.72
2023-04-20T13:41:23.633Z,43.74
2023-04-20T13:43:52.053Z,43.84
2023-04-20T13:46:21.846Z,43.97
2023-04-20T13:48:50.309Z,43.69
2023-04-20T13:51:18.745Z,43.75
2023-04-20T13:53:48.747Z,43.69
2023-04-20T13:56:17.370Z,44.00
2023-04-20T13:58:46.191Z,43.77
2023-04-20T14:01:15.464Z,43.64
2023-04-20T14:03:46.251Z,43.86
2023-04-20T14:06:15.078Z,43.64
2023-04-20T14:08:43.566Z,43.78
2023-04-20T14:11:11.945Z,43.73
2023-04-20T14:13:41.227Z,43.63
2023-04-20T14:16:11.095Z,43.69
2023-04-20T14:18:39.728Z,43.49
2023-04-20T14:21:09.552Z,43.59
2023-04-20T14:23:37.954Z,43.33
2023-04-20T14:26:06.573Z,43.43
2023-04-20T14:28:35.538Z,42.95
2023-04-20T14:31:04.035Z,43.52
2023-04-20T14:33:32.457Z,43.31
2023-04-20T14:36:00.954Z,43.38
2023-04-20T14:38:30.757Z,43.46
2023-04-20T14:41:00.165Z,43.32
2023-04-20T14:43:28.573Z,43.42
2023-04-20T14:45:58.814Z,43.38
2023-04-20T14:48:27.339Z,43.15
2023-04-20T14:50:55.699Z,42.37
2023-04-20T14:53:24.279Z,43.13
2023-04-20T14:55:54.028Z,43.21
2023-04-20T14:58:22.444Z,43.44
2023-04-20T15:00:51.049Z,43.07
2023-04-20T15:03:19.796Z,41.70
2023-04-20T15:05:48.478Z,41.43
2023-04-20T15:08:17.032Z,41.88
2023-04-20T15:10:45.398Z,41.83
2023-04-20T15:13:15.206Z,41.47
2023-04-20T15:15:48.947Z,41.56
2023-04-20T15:18:18.621Z,41.58
2023-04-20T15:20:46.975Z,41.52
2023-04-20T15:23:15.381Z,41.84
2023-04-20T15:25:43.953Z,41.75
2023-04-20T15:28:12.626Z,41.68
2023-04-20T15:30:42.512Z,41.80
2023-04-20T15:33:10.956Z,41.76
2023-04-20T15:35:39.570Z,41.99
2023-04-20T15:38:07.931Z,42.13
2023-04-20T15:40:36.331Z,41.78
2023-04-20T15:43:04.721Z,42.21
2023-04-20T15:45:33.175Z,42.03
2023-04-20T15:48:03.039Z,41.99
2023-04-20T15:50:32.324Z,41.91
2023-04-20T15:53:00.899Z,42.04
2023-04-20T15:55:34.329Z,42.42
2023-04-20T15:58:02.880Z,42.15
2023-04-20T16:00:31.537Z,42.86
2023-04-20T16:03:01.802Z,41.91
2023-04-20T16:05:32.878Z,42.77
2023-04-20T16:08:01.420Z,42.29
2023-04-20T16:10:30.069Z,42.08
2023-04-20T16:12:58.470Z,41.86
2023-04-20T16:15:26.862Z,42.38
2023-04-20T16:17:55.325Z,42.97
2023-04-20T16:20:23.935Z,43.52
2023-04-20T16:22:53.723Z,43.38
2023-04-20T16:25:24.161Z,42.98
2023-04-20T16:27:52.640Z,42.35
2023-04-20T16:30:21.203Z,42.74
2023-04-20T16:32:49.761Z,42.91
2023-04-20T16:35:18.284Z,42.60
2023-04-20T16:37:47.106Z,42.25
2023-04-20T16:40:16.962Z,43.58
2023-04-20T16:42:45.357Z,44.02
2023-04-20T16:45:13.796Z,43.62
2023-04-20T16:47:42.235Z,44.27
2023-04-20T16:50:12.560Z,44.25
2023-04-20T16:52:40.990Z,44.45
2023-04-20T16:55:10.669Z,44.43
2023-04-20T16:57:41.271Z,43.48
2023-04-20T17:00:11.604Z,43.96
2023-04-20T17:02:40.206Z,44.15
2023-04-20T17:05:09.700Z,43.98
2023-04-20T17:07:38.082Z,42.82
2023-04-20T17:10:07.662Z,43.44
2023-04-20T17:12:36.063Z,43.36
2023-04-20T17:15:07.192Z,42.58
2023-04-20T17:17:35.603Z,42.69
2023-04-20T17:20:06.499Z,42.91
2023-04-20T17:22:35.368Z,43.11
2023-04-20T17:25:06.556Z,43.46
2023-04-20T17:27:36.047Z,42.82
2023-04-20T17:30:07.232Z,42.74
2023-04-20T17:32:35.597Z,43.00
2023-04-20T17:35:04.433Z,43.15
2023-04-20T17:37:32.866Z,43.19
2023-04-20T17:40:01.519Z,43.53
2023-04-20T17:42:29.957Z,42.48
2023-04-20T17:44:58.404Z,43.23
2023-04-20T17:47:28.587Z,43.09
2023-04-20T17:49:57.176Z,43.45
2023-04-20T17:52:25.589Z,43.27
2023-04-20T17:54:54.693Z,43.35
2023-04-20T17:57:23.178Z,43.27
2023-04-20T17:59:51.869Z,43.41
2023-04-20T18:02:20.355Z,43.33
2023-04-20T18:04:50.348Z,43.26
2023-04-20T18:07:18.880Z,43.24
2023-04-20T18:09:47.324Z,43.15
2023-04-20T18:12:15.785Z,43.14
2023-04-20T18:14:44.234Z,43.32
2023-04-20T18:17:12.620Z,43.13
2023-04-20T18:19:41.375Z,43.24
2023-04-20T18:22:11.138Z,43.51
2023-04-20T18:24:39.572Z,43.46
2023-04-20T18:27:07.979Z,43.39
2023-04-20T18:29:36.420Z,43.61
2023-04-20T18:32:05.110Z,43.57
2023-04-20T18:34:33.516Z,43.48
2023-04-20T18:37:01.901Z,43.28
2023-04-20T18:39:31.716Z,43.50
2023-04-20T18:42:00.117Z,43.58
2023-04-20T18:44:29.275Z,43.56
2023-04-20T18:46:57.836Z,43.62
2023-04-20T18:49:26.323Z,43.50
2023-04-20T18:51:54.865Z,43.56
2023-04-20T18:54:23.256Z,43.35
2023-04-20T18:56:54.791Z,43.29
2023-04-20T18:59:24.748Z,43.23
2023-04-20T19:01:53.201Z,43.15
2023-04-20T19:04:21.877Z,42.94
2023-04-20T19:06:50.502Z,43.17
2023-04-20T19:09:18.935Z,43.46
2023-04-20T19:11:47.291Z,43.68
2023-04-20T19:14:17.443Z,43.81
2023-04-20T19:16:46.031Z,43.77
2023-04-20T19:19:14.496Z,43.39
2023-04-20T19:21:42.989Z,43.42
2023-04-20T19:24:11.401Z,43.35
2023-04-20T19:26:39.838Z,43.26
2023-04-20T19:29:08.289Z,42.91
2023-04-20T19:31:40.159Z,43.39
2023-04-20T19:34:08.718Z,43.00
2023-04-20T19:36:37.250Z,43.07
2023-04-20T19:39:07.180Z,42.90
2023-04-20T19:41:36.584Z,44.14
2023-04-20T19:44:06.568Z,43.92
2023-04-20T19:46:35.074Z,45.25
2023-04-20T19:49:04.891Z,46.04
2023-04-20T19:51:33.377Z,46.21
2023-04-20T19:54:03.589Z,45.86
2023-04-20T19:56:32.183Z,45.92
2023-04-20T19:59:00.702Z,45.73
2023-04-20T20:01:29.191Z,45.62
2023-04-20T20:03:57.938Z,45.54
2023-04-20T20:06:28.516Z,45.46
2023-04-20T20:08:57.105Z,45.30
2023-04-20T20:11:25.815Z,45.14
2023-04-20T20:13:54.265Z,45.18
2023-04-20T20:16:22.745Z,45.19
2023-04-20T20:18:51.465Z,45.09
2023-04-20T20:21:19.940Z,44.65
2023-04-20T20:23:49.762Z,44.30
2023-04-20T20:26:18.152Z,44.31
2023-04-20T20:28:46.929Z,44.29
2023-04-20T20:31:15.626Z,44.51
2023-04-20T20:33:44.051Z,44.68
2023-04-20T20:36:12.521Z,44.73
2023-04-20T20:38:41.312Z,44.25
2023-04-20T20:41:13.662Z,44.40
2023-04-20T20:43:42.698Z,44.43
2023-04-20T20:46:11.194Z,44.51
2023-04-20T20:48:39.627Z,44.46
2023-04-20T20:51:08.081Z,44.30
2023-04-20T20:53:36.524Z,44.20
2023-04-20T20:56:05.102Z,44.44
2023-04-20T20:58:34.881Z,44.60
2023-04-20T21:01:03.238Z,44.44
2023-04-20T21:03:31.903Z,44.27
2023-04-20T21:06:00.519Z,44.22
2023-04-20T21:08:28.917Z,44.17
2023-04-20T21:10:57.415Z,44.42
2023-04-20T21:13:25.900Z,44.11
2023-04-20T21:15:55.747Z,44.35
2023-04-20T21:18:24.227Z,44.32
2023-04-20T21:20:52.623Z,44.17
2023-04-20T21:23:21.093Z,44.18
2023-04-20T21:25:49.426Z,44.02
2023-04-20T21:28:17.915Z,44.18
2023-04-20T21:30:46.304Z,44.01
2023-04-20T21:33:16.218Z,43.97
2023-04-20T21:35:44.735Z,43.83
2023-04-20T21:38:13.273Z,44.15
2023-04-20T21:40:41.786Z,43.79
2023-04-20T21:43:10.165Z,44.03
2023-04-20T21:45:38.654Z,43.88
2023-04-20T21:48:07.679Z,43.80
2023-04-20T21:50:38.093Z,44.09
2023-04-20T21:53:06.590Z,43.88
2023-04-20T21:55:35.043Z,44.09
2023-04-20T21:58:03.565Z,43.82
2023-04-20T22:00:32.035Z,44.03
2023-04-20T22:03:00.626Z,43.84
2023-04-20T22:05:29.446Z,43.96
2023-04-20T22:07:59.167Z,43.86
2023-04-20T22:10:27.711Z,43.86
2023-04-20T22:12:56.159Z,44.07
2023-04-20T22:15:26.260Z,43.76
2023-04-20T22:17:54.828Z,43.73
2023-04-20T22:20:23.266Z,43.87
2023-04-20T22:22:51.722Z,43.65
2023-04-20T22:25:21.460Z,43.34
2023-04-20T22:27:49.817Z,43.41
2023-04-20T22:30:18.340Z,43.17
2023-04-20T22:32:46.803Z,43.25
2023-04-20T22:35:15.186Z,43.10
2023-04-20T22:37:43.617Z,43.06
2023-04-20T22:40:13.438Z,42.80
2023-04-20T22:42:43.298Z,43.11
2023-04-20T22:45:12.680Z,42.50
2023-04-20T22:47:41.583Z,42.52
2023-04-20T22:50:12.326Z,42.24
2023-04-20T22:52:40.711Z,42.58
2023-04-20T22:55:10.678Z,42.44
2023-04-20T22:57:39.696Z,41.86
2023-04-20T23:00:13.524Z,41.96
2023-04-20T23:02:42.216Z,41.43
2023-04-20T23:05:11.443Z,41.49
2023-04-20T23:07:40.359Z,41.35
2023-04-20T23:10:11.836Z,41.27
2023-04-20T23:12:40.214Z,41.22
2023-04-20T23:15:11.600Z,41.40
2023-04-20T23:17:40.034Z,40.96
2023-04-20T23:20:13.898Z,41.56
2023-04-20T23:22:42.534Z,41.29
2023-04-20T23:25:11.371Z,41.11
2023-04-20T23:27:39.753Z,41.00
2023-04-20T23:30:11.264Z,40.73
2023-04-20T23:32:39.944Z,40.45
2023-04-20T23:35:10.256Z,40.69
2023-04-20T23:37:38.670Z,40.43
2023-04-20T23:40:10.198Z,40.59
2023-04-20T23:42:38.543Z,40.32
2023-04-20T23:45:09.942Z,40.76
2023-04-20T23:47:38.347Z,40.33
2023-04-20T23:50:08.620Z,40.54
2023-04-20T23:52:37.148Z,40.56
2023-04-20T23:55:06.536Z,40.32
2023-04-20T23:57:34.937Z,40.35
